Terminal Aerodrome Forecast
Issued by NWS

Home | Current Version | Previous Version | Text Only | Print | Product List | Glossary On
Versions: 1 2 3 4 5 6 7 8 9 10 11 12 13 14 15 16 17
000
FTUS44 KEPZ 011700
TAFTCS
TAF
KTCS 011726Z 0118/0218 20014G24KT P6SM FEW080 SCT250
     FM020200 23008KT P6SM SCT200
     FM020600 25005KT P6SM BKN100
     FM021500 18011KT P6SM SCT050 BKN100=

USA.gov is the U.S. government's official web portal to all federal, state and local government web resources and services.